Rogers Park, Illinois
Current Conditions -  °F | °C
As of 11:51 AM on Friday 24 Oct 2014 (Local Time) from KORD Reporting Station
Broken Clouds Broken Clouds  
Wind Chill: 60°   Ceiling: 25000
Heat Index: 60°   Visibility: 10mi
Dew Point: 48°   Wind: 5mph
Humidity: 64%   Direction: 160°SSE
Pressure: 30.04"   Gusts: NA
Location:  41.991°N, 87.6654°W
Report Text: KORD 241651Z 16004KT 10SM BKN250 16/09 A3004 RMK AO2 SLP172 T01560089
Loading
Personal Weather Stations






























Interactive Weather Map
Tropical Storm Tracking
New forecast layout! Learn more

10-Day Weather Forecast

Advertisements
Track Severe Weather on mobile